Time;durP1;ratioP1;P1;durP2;ratioP2;P2;SDS_P1;SDS_P2;PMS_P1;PMS_P2;Temp;Humidity;BMP_temperature;BMP_pressure;BME280_temperature;BME280_humidity;BME280_pressure;Samples;Min_cycle;Max_cycle;Signal;HPM_P1;HPM_P2
2023/03/20 00:04:53;;;;;;;6.65;3.17;;;11.80;99.90;;;;;;10429609;28;20432;-64
2023/03/20 00:09:56;;;;;;;6.10;3.17;;;11.80;99.90;;;;;;10429615;28;20025;-64
2023/03/20 00:14:58;;;;;;;7.82;3.83;;;11.80;99.90;;;;;;10431045;28;20308;-64
2023/03/20 00:19:59;;;;;;;5.65;2.72;;;11.70;99.90;;;;;;10430762;28;20523;-63
2023/03/20 00:24:59;;;;;;;5.93;3.17;;;11.70;99.90;;;;;;10443035;28;20041;-63
2023/03/20 00:30:01;;;;;;;5.93;3.20;;;11.70;99.90;;;;;;10439273;28;20533;-64
2023/03/20 00:35:16;;;;;;;7.35;3.30;;;11.70;99.90;;;;;;10439093;28;20017;-64
2023/03/20 00:40:18;;;;;;;5.65;3.08;;;11.70;99.90;;;;;;10434030;28;20108;-64
2023/03/20 00:45:20;;;;;;;4.88;2.60;;;11.70;99.90;;;;;;10436421;28;20032;-64
2023/03/20 00:50:24;;;;;;;5.82;2.80;;;11.70;99.90;;;;;;10442785;28;20037;-63
2023/03/20 00:55:28;;;;;;;5.38;3.20;;;11.60;99.90;;;;;;10438474;28;20025;-65
2023/03/20 01:00:41;;;;;;;8.27;2.75;;;11.60;99.90;;;;;;10442162;28;20025;-64
2023/03/20 01:05:42;;;;;;;6.53;2.55;;;11.60;99.90;;;;;;10431236;28;20053;-64
2023/03/20 01:10:45;;;;;;;6.57;2.85;;;11.60;99.90;;;;;;10433112;28;20041;-64
2023/03/20 01:15:47;;;;;;;7.38;3.53;;;11.60;99.90;;;;;;10434639;28;20079;-63
2023/03/20 01:20:48;;;;;;;3.40;2.20;;;11.60;99.90;;;;;;10413741;28;20052;-64
2023/03/20 01:25:49;;;;;;;3.85;2.60;;;11.60;99.90;;;;;;10435843;28;20103;-64
2023/03/20 01:30:50;;;;;;;4.30;2.40;;;11.60;99.90;;;;;;10435579;28;20095;-63
2023/03/20 01:35:51;;;;;;;5.05;2.55;;;11.60;99.90;;;;;;10439456;28;20039;-64
2023/03/20 01:41:04;;;;;;;4.15;2.03;;;11.60;99.90;;;;;;10439115;28;20021;-64
2023/03/20 01:46:08;;;;;;;4.93;2.58;;;11.60;99.90;;;;;;10438938;28;20053;-64
2023/03/20 01:51:08;;;;;;;5.20;2.58;;;11.50;99.90;;;;;;10438136;28;20036;-64
2023/03/20 01:56:12;;;;;;;6.38;2.50;;;11.50;99.90;;;;;;10436474;28;20017;-64
2023/03/20 02:01:14;;;;;;;3.83;2.00;;;11.50;99.90;;;;;;10429239;28;20049;-64
2023/03/20 02:06:15;;;;;;;4.75;2.60;;;11.50;99.90;;;;;;10434514;28;20059;-64
2023/03/20 02:11:18;;;;;;;7.05;2.58;;;11.50;99.90;;;;;;10437150;28;20115;-64
2023/03/20 02:16:19;;;;;;;4.68;2.28;;;11.50;99.90;;;;;;10432075;28;20028;-64
2023/03/20 02:21:40;;;;;;;5.50;2.25;;;11.50;99.90;;;;;;10432038;28;20021;-65
2023/03/20 02:27:05;;;;;;;6.28;2.60;;;11.40;99.90;;;;;;10434941;28;20025;-64
2023/03/20 02:32:25;;;;;;;6.47;2.75;;;11.40;99.90;;;;;;10436063;28;20043;-64
2023/03/20 02:37:45;;;;;;;5.68;2.97;;;11.40;99.90;;;;;;10429238;28;20405;-64
2023/03/20 02:43:02;;;;;;;6.68;2.55;;;11.40;99.90;;;;;;10435872;28;20029;-64
2023/03/20 02:48:24;;;;;;;5.30;2.90;;;11.40;99.90;;;;;;10429941;28;20017;-64
2023/03/20 02:53:31;;;;;;;4.72;2.65;;;11.40;99.90;;;;;;10429675;28;20032;-64
2023/03/20 02:58:45;;;;;;;5.93;2.70;;;11.40;99.90;;;;;;10428295;28;20355;-63
2023/03/20 03:04:00;;;;;;;6.28;2.65;;;11.40;99.90;;;;;;10430800;28;20104;-64
2023/03/20 03:09:04;;;;;;;5.63;2.97;;;11.40;99.90;;;;;;10435207;28;20520;-64
2023/03/20 03:14:06;;;;;;;5.18;2.55;;;11.40;99.90;;;;;;10432959;28;20211;-63
2023/03/20 03:19:10;;;;;;;5.95;2.72;;;11.40;99.90;;;;;;10436096;28;20119;-64
2023/03/20 03:24:41;;;;;;;6.15;3.22;;;11.30;99.90;;;;;;10432145;28;20063;-64
2023/03/20 03:29:44;;;;;;;5.10;2.42;;;11.30;99.90;;;;;;10423591;28;20456;-64
2023/03/20 03:34:45;;;;;;;4.32;2.50;;;11.30;99.90;;;;;;10431693;28;20024;-64
2023/03/20 03:39:53;;;;;;;6.35;2.42;;;11.30;99.90;;;;;;10434624;28;20056;-64
2023/03/20 03:45:12;;;;;;;5.63;2.50;;;11.30;99.90;;;;;;10422021;28;20021;-64
2023/03/20 03:50:15;;;;;;;;;;;11.30;99.90;;;;;;10436687;28;20265;-64
2023/03/20 03:55:25;;;;;;;6.03;2.38;;;11.30;99.90;;;;;;10435639;28;19904;-64
2023/03/20 04:00:26;;;;;;;4.53;2.35;;;11.30;99.90;;;;;;10433215;28;20017;-64
2023/03/20 04:05:30;;;;;;;4.22;2.13;;;11.20;99.90;;;;;;10431750;28;20101;-64
2023/03/20 04:10:32;;;;;;;4.05;2.25;;;11.20;99.90;;;;;;10433063;28;20546;-64
2023/03/20 04:15:32;;;;;;;3.38;1.98;;;11.20;99.90;;;;;;10435718;28;20025;-64
2023/03/20 04:20:33;;;;;;;4.20;2.10;;;11.20;99.90;;;;;;10428803;28;20500;-63
2023/03/20 04:25:34;;;;;;;3.55;2.28;;;11.20;99.90;;;;;;10430222;28;20045;-63
2023/03/20 04:30:34;;;;;;;4.55;2.30;;;11.20;99.90;;;;;;10431741;28;20473;-65
2023/03/20 04:35:35;;;;;;;4.45;2.38;;;11.20;99.90;;;;;;10431656;28;20014;-63
2023/03/20 04:57:49;;;;;;;5.85;2.50;;;11.10;99.90;;;;;;10347508;28;20121;-64
2023/03/20 05:02:50;;;;;;;5.38;2.83;;;11.10;99.90;;;;;;10397524;28;20044;-64
2023/03/20 05:07:51;;;;;;;5.30;2.53;;;11.10;99.90;;;;;;10439916;28;20024;-64
2023/03/20 05:12:51;;;;;;;4.43;2.58;;;11.10;99.90;;;;;;10440642;28;20025;-64
2023/03/20 05:17:53;;;;;;;4.45;2.45;;;11.10;99.90;;;;;;10433518;28;20021;-64
2023/03/20 05:22:54;;;;;;;6.97;3.00;;;11.10;99.90;;;;;;10437451;28;20029;-64
2023/03/20 05:27:54;;;;;;;5.43;2.55;;;11.10;99.90;;;;;;10428316;28;20404;-64
2023/03/20 05:32:55;;;;;;;5.50;2.90;;;11.10;99.90;;;;;;10433906;28;20021;-64
2023/03/20 05:37:56;;;;;;;5.57;2.72;;;11.10;99.90;;;;;;10437766;28;20084;-64
2023/03/20 05:42:56;;;;;;;6.50;3.05;;;11.10;99.90;;;;;;10435319;28;20057;-65
2023/03/20 05:47:57;;;;;;;6.55;3.15;;;11.10;99.90;;;;;;10440774;28;20029;-64
2023/03/20 05:52:58;;;;;;;6.65;2.83;;;11.00;99.90;;;;;;10432025;28;20079;-64
2023/03/20 05:57:58;;;;;;;4.57;3.13;;;11.00;99.90;;;;;;10436636;28;20283;-64
2023/03/20 06:02:59;;;;;;;6.80;2.92;;;11.00;99.90;;;;;;10443372;28;20108;-65
2023/03/20 06:08:00;;;;;;;5.85;2.63;;;11.00;99.90;;;;;;10437842;28;20582;-64
2023/03/20 06:13:01;;;;;;;5.70;2.97;;;11.00;99.90;;;;;;10439835;28;20512;-64
2023/03/20 06:18:01;;;;;;;5.88;3.00;;;11.00;99.90;;;;;;10435374;28;20120;-64
2023/03/20 06:23:02;;;;;;;5.47;2.58;;;11.90;99.90;;;;;;10435201;28;20034;-65
2023/03/20 06:28:02;;;;;;;5.65;2.88;;;11.00;99.90;;;;;;10436238;28;20465;-64
2023/03/20 06:33:05;;;;;;;8.00;3.42;;;11.00;99.90;;;;;;10431009;28;20017;-64
2023/03/20 06:38:06;;;;;;;6.90;2.75;;;11.00;99.90;;;;;;10432534;28;20113;-64
2023/03/20 06:43:07;;;;;;;5.80;3.03;;;11.00;99.90;;;;;;10436389;28;20025;-65
2023/03/20 06:48:08;;;;;;;5.25;2.83;;;11.00;99.90;;;;;;10439453;28;20055;-64
2023/03/20 06:53:08;;;;;;;6.78;3.47;;;11.00;99.90;;;;;;10422394;28;20024;-64
2023/03/20 06:58:09;;;;;;;7.05;3.28;;;11.00;99.90;;;;;;10432944;28;20424;-64
2023/03/20 07:03:10;;;;;;;5.53;2.95;;;11.00;99.90;;;;;;10416785;28;20056;-64
2023/03/20 07:08:11;;;;;;;4.63;2.92;;;11.00;99.90;;;;;;10430171;28;20025;-63
2023/03/20 07:13:13;;;;;;;5.82;2.95;;;11.00;99.90;;;;;;10433639;28;20025;-63
2023/03/20 07:18:15;;;;;;;5.88;2.80;;;11.00;99.90;;;;;;10435286;28;20158;-64
2023/03/20 07:23:24;;;;;;;6.45;3.30;;;11.00;99.90;;;;;;10426706;28;20070;-63
2023/03/20 07:28:25;;;;;;;7.40;3.35;;;11.00;99.90;;;;;;10431536;28;20108;-65
2023/03/20 07:33:26;;;;;;;5.90;3.08;;;11.00;99.90;;;;;;10434424;28;20020;-64
2023/03/20 07:38:27;;;;;;;6.50;3.28;;;11.00;99.90;;;;;;10436344;28;20601;-64
2023/03/20 07:43:27;;;;;;;6.45;3.00;;;11.00;99.90;;;;;;10434007;28;20509;-64
2023/03/20 07:48:28;;;;;;;6.25;3.03;;;11.00;99.90;;;;;;10431841;28;20052;-63
2023/03/20 07:53:29;;;;;;;7.88;3.63;;;11.10;99.90;;;;;;10431069;28;20033;-64
2023/03/20 07:58:29;;;;;;;6.88;3.50;;;11.10;99.90;;;;;;10430895;28;20041;-63
2023/03/20 08:03:30;;;;;;;6.35;3.28;;;11.10;99.90;;;;;;10438260;28;20545;-64
2023/03/20 08:08:31;;;;;;;6.25;3.65;;;11.10;99.90;;;;;;10431800;28;20023;-64
2023/03/20 08:13:31;;;;;;;7.03;3.55;;;11.10;99.90;;;;;;10436728;28;20012;-64
2023/03/20 08:18:32;;;;;;;5.72;3.33;;;11.10;99.90;;;;;;10432780;28;20028;-64
2023/03/20 08:23:33;;;;;;;8.00;3.10;;;11.10;99.90;;;;;;10426630;28;20106;-64
2023/03/20 08:28:33;;;;;;;6.90;3.50;;;11.20;99.90;;;;;;10432241;28;20060;-64
2023/03/20 08:33:34;;;;;;;8.65;3.63;;;11.20;99.90;;;;;;10427589;28;20095;-62
2023/03/20 08:38:35;;;;;;;14.20;4.00;;;11.20;99.90;;;;;;10428858;28;20029;-63
2023/03/20 08:43:35;;;;;;;11.05;3.92;;;11.20;99.90;;;;;;10433685;28;20386;-63
2023/03/20 08:48:36;;;;;;;9.73;3.47;;;11.20;99.90;;;;;;10433131;28;20091;-62
2023/03/20 08:53:37;;;;;;;5.85;3.50;;;11.20;99.90;;;;;;10436825;28;20023;-63
2023/03/20 08:58:37;;;;;;;6.65;3.20;;;11.30;99.90;;;;;;10431822;28;20048;-63
2023/03/20 09:03:39;;;;;;;9.25;3.97;;;11.30;99.90;;;;;;10440799;28;20040;-62
2023/03/20 09:08:39;;;;;;;9.65;3.65;;;11.30;99.90;;;;;;10436571;28;20034;-63
2023/03/20 09:13:40;;;;;;;11.18;4.13;;;11.30;99.90;;;;;;10442383;28;20052;-63
2023/03/20 09:18:41;;;;;;;11.82;5.13;;;11.40;99.90;;;;;;10436824;28;20072;-63
2023/03/20 09:23:41;;;;;;;9.70;3.75;;;11.40;99.90;;;;;;10432243;28;20068;-64
2023/03/20 09:28:42;;;;;;;7.97;3.78;;;11.50;99.90;;;;;;10434538;28;20413;-63
2023/03/20 09:33:43;;;;;;;8.77;3.75;;;11.50;99.80;;;;;;10437896;28;20028;-62
2023/03/20 09:38:43;;;;;;;5.65;3.42;;;11.60;99.80;;;;;;10430444;28;20029;-63
2023/03/20 09:44:11;;;;;;;10.45;3.83;;;11.60;99.80;;;;;;10438807;28;20487;-63
2023/03/20 09:49:30;;;;;;;7.50;3.93;;;11.60;99.70;;;;;;10436498;28;20029;-63
2023/03/20 09:54:36;;;;;;;8.82;4.47;;;11.60;99.80;;;;;;10432259;28;20028;-63
2023/03/20 09:59:37;;;;;;;7.70;3.75;;;11.60;99.70;;;;;;10439623;28;20028;-63
2023/03/20 10:04:39;;;;;;;6.35;3.60;;;11.60;99.80;;;;;;10436037;28;20025;-62
2023/03/20 10:09:42;;;;;;;7.07;4.10;;;11.60;99.80;;;;;;10434369;28;20079;-63
2023/03/20 10:14:56;;;;;;;11.50;4.00;;;11.60;99.90;;;;;;10435564;28;20025;-62
2023/03/20 10:20:08;;;;;;;6.57;3.38;;;11.70;99.90;;;;;;10425133;28;20071;-62
2023/03/20 10:25:11;;;;;;;8.27;3.67;;;11.70;99.90;;;;;;10434963;28;20460;-62
2023/03/20 10:30:49;;;;;;;7.88;4.10;;;11.70;99.90;;;;;;10433479;28;20110;-63
2023/03/20 10:36:17;;;;;;;9.57;4.03;;;11.70;99.90;;;;;;10429474;28;20079;-62
2023/03/20 10:41:22;;;;;;;7.83;3.80;;;11.70;99.90;;;;;;10434142;28;20107;-62
2023/03/20 10:46:30;;;;;;;9.00;3.85;;;11.60;99.90;;;;;;10435734;28;20024;-62
2023/03/20 10:51:57;;;;;;;9.75;3.63;;;11.60;99.90;;;;;;10428558;28;20484;-62
2023/03/20 10:57:00;;;;;;;10.48;4.00;;;11.70;99.90;;;;;;10431175;28;20079;-62
2023/03/20 11:02:00;;;;;;;8.75;3.38;;;11.60;99.90;;;;;;10425239;28;20555;-62
2023/03/20 11:07:25;;;;;;;8.60;4.28;;;11.60;99.90;;;;;;10429039;28;20156;-62
2023/03/20 11:12:32;;;;;;;8.52;3.88;;;11.70;99.90;;;;;;10432300;28;20459;-64
2023/03/20 11:17:33;;;;;;;17.05;4.28;;;11.70;99.90;;;;;;10434845;28;20028;-65
2023/03/20 11:22:36;;;;;;;7.57;3.47;;;11.70;99.90;;;;;;10427840;28;20620;-65
2023/03/20 11:27:36;;;;;;;8.35;3.60;;;11.50;99.70;;;;;;10425505;28;20021;-65
2023/03/20 11:32:45;;;;;;;11.50;4.90;;;11.40;99.60;;;;;;10422763;28;20036;-65
2023/03/20 11:37:48;;;;;;;16.75;4.65;;;11.30;99.50;;;;;;10432149;28;20554;-64
2023/03/20 11:42:59;;;;;;;9.60;3.88;;;11.20;99.50;;;;;;10432979;28;20043;-65
2023/03/20 11:48:00;;;;;;;11.00;3.45;;;11.10;99.40;;;;;;10430442;28;20056;-65
2023/03/20 11:53:03;;;;;;;8.43;4.05;;;11.00;99.50;;;;;;10425487;28;20025;-65
2023/03/20 11:58:10;;;;;;;10.48;3.55;;;11.00;99.40;;;;;;10427071;28;20137;-65
2023/03/20 12:03:42;;;;;;;9.00;3.00;;;10.90;99.30;;;;;;10430751;28;20545;-65
2023/03/20 12:08:50;;;;;;;14.68;3.20;;;10.90;99.00;;;;;;10429495;28;20563;-65
2023/03/20 12:13:56;;;;;;;8.43;3.17;;;10.90;99.20;;;;;;10424666;28;20022;-65
2023/03/20 12:19:01;;;;;;;14.30;3.35;;;10.80;99.20;;;;;;10427873;28;20029;-65
2023/03/20 12:24:23;;;;;;;14.25;3.97;;;10.70;99.30;;;;;;10430603;28;20048;-63
2023/03/20 12:29:55;;;;;;;16.30;3.65;;;10.60;99.50;;;;;;10420793;28;20108;-62
2023/03/20 12:35:01;;;;;;;16.10;3.47;;;10.70;99.50;;;;;;10424716;28;20493;-63
2023/03/20 12:40:05;;;;;;;16.55;3.72;;;10.80;99.60;;;;;;10424062;28;20029;-64
2023/03/20 12:45:13;;;;;;;16.55;3.70;;;10.90;99.60;;;;;;10419017;28;20409;-63
2023/03/20 12:50:26;;;;;;;12.07;3.27;;;10.90;99.60;;;;;;10427078;28;20036;-63
2023/03/20 12:55:52;;;;;;;7.75;2.58;;;11.00;99.70;;;;;;10426715;28;20036;-64
2023/03/20 13:00:53;;;;;;;10.32;3.00;;;11.10;99.90;;;;;;10421800;28;20548;-64
2023/03/20 13:06:12;;;;;;;8.02;2.53;;;11.10;99.80;;;;;;10423606;28;20057;-61
2023/03/20 13:11:32;;;;;;;6.88;2.55;;;11.10;99.90;;;;;;10423633;28;20026;-61
2023/03/20 13:17:03;;;;;;;10.10;3.25;;;11.10;99.90;;;;;;10423776;28;20039;-62
2023/03/20 13:22:12;;;;;;;6.70;2.60;;;11.10;99.90;;;;;;10439572;28;20043;-63
2023/03/20 13:27:33;;;;;;;;;;;11.10;99.90;;;;;;10432291;28;20021;-63
2023/03/20 13:33:04;;;;;;;9.93;2.75;;;11.10;99.90;;;;;;10421720;28;19913;-61
2023/03/20 13:38:17;;;;;;;5.60;2.65;;;11.20;99.90;;;;;;10427642;28;20400;-63
2023/03/20 13:43:29;;;;;;;5.65;2.55;;;11.10;99.90;;;;;;10430725;28;20025;-64
2023/03/20 13:48:39;;;;;;;5.60;2.03;;;11.20;99.90;;;;;;10436478;28;20021;-63
2023/03/20 13:53:48;;;;;;;8.20;2.47;;;11.20;99.90;;;;;;10433122;28;20065;-63
2023/03/20 13:59:01;;;;;;;5.45;2.40;;;11.20;99.90;;;;;;10435400;28;20051;-63
2023/03/20 14:04:03;;;;;;;11.18;2.90;;;11.20;99.90;;;;;;10435139;28;20099;-62
2023/03/20 14:09:28;;;;;;;6.43;2.55;;;11.20;99.90;;;;;;10430290;28;20266;-63
2023/03/20 14:14:31;;;;;;;6.25;2.30;;;11.20;99.90;;;;;;10432931;28;20021;-62
2023/03/20 14:19:34;;;;;;;5.50;2.58;;;12.20;99.90;;;;;;10430284;28;20059;-62
2023/03/20 14:24:37;;;;;;;5.97;2.50;;;11.20;99.90;;;;;;10434178;28;20037;-63
2023/03/20 14:29:37;;;;;;;6.22;2.83;;;11.20;99.90;;;;;;10424640;28;20052;-62
2023/03/20 14:34:45;;;;;;;6.80;2.50;;;11.20;99.90;;;;;;10433108;28;20174;-63
2023/03/20 14:40:14;;;;;;;6.50;2.90;;;11.20;99.90;;;;;;10430037;28;20207;-63
2023/03/20 14:45:15;;;;;;;6.20;2.72;;;11.10;99.90;;;;;;10432794;28;20080;-63
2023/03/20 14:50:40;;;;;;;9.55;2.83;;;11.20;99.90;;;;;;10436513;28;20040;-64
2023/03/20 14:55:55;;;;;;;5.88;2.97;;;11.20;99.90;;;;;;10428316;28;20028;-65
2023/03/20 15:01:02;;;;;;;6.13;2.83;;;11.20;99.90;;;;;;10426779;28;20412;-64
2023/03/20 15:06:06;;;;;;;6.40;3.33;;;11.20;99.90;;;;;;10435000;28;20029;-65
2023/03/20 15:11:12;;;;;;;8.88;4.45;;;11.20;99.90;;;;;;10426559;28;20021;-65
2023/03/20 15:16:14;;;;;;;8.20;4.97;;;11.20;99.90;;;;;;10431706;28;20025;-64
2023/03/20 15:21:22;;;;;;;7.90;4.72;;;11.10;99.90;;;;;;10428252;28;20013;-64
2023/03/20 15:26:24;;;;;;;11.82;5.22;;;11.10;99.90;;;;;;10431687;28;20078;-64
2023/03/20 15:31:31;;;;;;;8.32;4.70;;;11.10;99.90;;;;;;10434955;28;20009;-63
2023/03/20 15:36:38;;;;;;;8.27;4.88;;;11.10;99.90;;;;;;10432668;28;20035;-64
2023/03/20 15:41:39;;;;;;;7.15;4.32;;;11.10;99.90;;;;;;10430031;28;20017;-64
2023/03/20 15:46:48;;;;;;;7.93;4.38;;;11.20;99.90;;;;;;10430939;28;20113;-67
2023/03/20 15:51:50;;;;;;;10.48;5.03;;;11.10;99.90;;;;;;10432471;28;20021;-64
2023/03/20 15:56:52;;;;;;;7.10;4.50;;;11.10;99.90;;;;;;10429635;28;20071;-66
2023/03/20 16:01:56;;;;;;;12.02;4.85;;;11.10;99.90;;;;;;10425275;28;20037;-63
2023/03/20 16:07:00;;;;;;;8.65;5.03;;;11.20;99.90;;;;;;10426338;28;20037;-63
2023/03/20 16:12:02;;;;;;;10.65;5.15;;;11.20;99.90;;;;;;10428265;28;20016;-65
2023/03/20 16:17:03;;;;;;;8.52;4.78;;;11.20;99.90;;;;;;10426959;28;20025;-63
2023/03/20 16:22:25;;;;;;;8.82;5.00;;;11.20;99.90;;;;;;10431351;28;20025;-64
2023/03/20 16:27:29;;;;;;;6.45;4.65;;;11.20;99.90;;;;;;10420865;28;20021;-63
2023/03/20 16:32:39;;;;;;;7.47;4.47;;;11.10;99.90;;;;;;10427980;28;20033;-63
2023/03/20 16:37:56;;;;;;;9.23;4.80;;;11.10;99.90;;;;;;10423739;28;20106;-62
2023/03/20 16:43:09;;;;;;;6.88;4.28;;;11.10;99.90;;;;;;10420242;28;20017;-63
2023/03/20 16:48:10;;;;;;;10.75;4.60;;;11.10;99.90;;;;;;10424406;28;20034;-63
2023/03/20 16:53:16;;;;;;;5.85;4.20;;;11.10;99.90;;;;;;10423872;28;20029;-64
2023/03/20 16:58:22;;;;;;;8.30;4.80;;;11.10;99.90;;;;;;10432778;28;20017;-64
2023/03/20 17:03:27;;;;;;;8.77;4.80;;;11.10;99.90;;;;;;10437730;28;20534;-64
2023/03/20 17:08:34;;;;;;;8.00;4.53;;;11.10;99.90;;;;;;10436292;28;20013;-64
2023/03/20 17:13:35;;;;;;;13.00;5.97;;;11.10;99.90;;;;;;10432685;28;20124;-65
2023/03/20 17:18:36;;;;;;;8.60;5.07;;;11.10;99.90;;;;;;10431975;28;20124;-63
2023/03/20 17:23:37;;;;;;;9.70;5.03;;;11.00;99.90;;;;;;10437389;28;20035;-63
2023/03/20 17:28:38;;;;;;;6.78;4.55;;;11.10;99.90;;;;;;10434561;28;20040;-63
2023/03/20 17:33:38;;;;;;;7.50;4.80;;;11.10;99.90;;;;;;10438808;28;20067;-63
2023/03/20 17:38:39;;;;;;;8.98;4.80;;;11.10;99.90;;;;;;10433335;28;20108;-64
2023/03/20 17:43:39;;;;;;;6.82;5.00;;;11.10;99.90;;;;;;10434969;28;20497;-64
2023/03/20 17:48:40;;;;;;;7.85;4.95;;;11.10;99.90;;;;;;10433252;28;20355;-69
2023/03/20 17:53:42;;;;;;;10.70;6.07;;;11.10;99.90;;;;;;10432000;28;20378;-62
2023/03/20 17:58:43;;;;;;;10.80;5.47;;;11.00;99.90;;;;;;10428595;28;20028;-64
2023/03/20 18:03:44;;;;;;;7.72;5.20;;;11.00;99.90;;;;;;10433713;28;20051;-63
2023/03/20 18:08:44;;;;;;;11.52;5.85;;;11.00;99.90;;;;;;10425084;28;20033;-64
2023/03/20 18:13:45;;;;;;;8.60;5.25;;;11.00;99.90;;;;;;10425805;28;20175;-64
2023/03/20 18:18:46;;;;;;;8.25;5.00;;;11.00;99.90;;;;;;10428107;28;20056;-65
2023/03/20 18:23:46;;;;;;;8.93;5.63;;;11.00;99.90;;;;;;10430319;28;20033;-63
2023/03/20 18:28:49;;;;;;;9.20;5.32;;;11.00;99.90;;;;;;10433551;28;20021;-64
2023/03/20 18:33:52;;;;;;;8.00;5.53;;;11.00;99.90;;;;;;10430649;28;20083;-64
2023/03/20 18:38:52;;;;;;;8.57;5.35;;;11.00;99.90;;;;;;10430944;28;20096;-65
2023/03/20 18:43:54;;;;;;;8.07;4.97;;;11.00;99.90;;;;;;10426541;28;20025;-65
2023/03/20 18:48:55;;;;;;;8.43;5.28;;;11.00;99.90;;;;;;10429571;28;20100;-63
2023/03/20 18:53:56;;;;;;;6.57;4.88;;;11.00;99.90;;;;;;10419335;28;20025;-64
2023/03/20 18:58:56;;;;;;;7.63;4.93;;;11.00;99.90;;;;;;10424113;28;20036;-64
2023/03/20 19:03:57;;;;;;;7.35;5.05;;;11.00;99.90;;;;;;10433009;28;20033;-62
2023/03/20 19:08:58;;;;;;;8.40;5.32;;;10.90;99.90;;;;;;10426940;28;20082;-64
2023/03/20 19:13:58;;;;;;;7.38;4.68;;;10.90;99.90;;;;;;10430020;28;20025;-65
2023/03/20 19:19:01;;;;;;;6.85;4.57;;;10.90;99.90;;;;;;10427760;28;20094;-63
2023/03/20 19:24:04;;;;;;;7.53;4.70;;;10.90;99.90;;;;;;10424775;28;20064;-63
2023/03/20 19:29:07;;;;;;;7.38;4.90;;;10.90;99.90;;;;;;10426423;28;20459;-64
2023/03/20 19:34:07;;;;;;;8.00;5.70;;;10.90;99.90;;;;;;10425476;28;20089;-64
2023/03/20 19:39:12;;;;;;;6.00;4.82;;;10.90;99.90;;;;;;10427008;28;20085;-64
2023/03/20 19:44:13;;;;;;;7.70;5.35;;;10.90;99.90;;;;;;10426714;28;20029;-64
2023/03/20 19:49:19;;;;;;;7.43;5.55;;;10.90;99.90;;;;;;10418611;28;20492;-64
2023/03/20 19:54:19;;;;;;;8.48;5.40;;;10.90;99.90;;;;;;10408904;28;20340;-62
2023/03/20 19:59:20;;;;;;;8.60;5.63;;;10.90;99.90;;;;;;10420576;28;20025;-64
2023/03/20 20:04:21;;;;;;;7.57;5.40;;;10.90;99.90;;;;;;10423453;28;20033;-64
2023/03/20 20:09:22;;;;;;;8.05;5.25;;;10.90;99.90;;;;;;10419019;28;20036;-62
2023/03/20 20:14:23;;;;;;;9.85;5.65;;;10.90;99.90;;;;;;10422444;28;20048;-63
2023/03/20 20:19:24;;;;;;;8.98;5.60;;;10.90;99.90;;;;;;10433706;28;20024;-63
2023/03/20 20:24:24;;;;;;;8.57;5.65;;;10.90;99.90;;;;;;10428920;28;20044;-64
2023/03/20 20:29:25;;;;;;;9.52;5.93;;;10.90;99.90;;;;;;10431923;28;20025;-64
2023/03/20 20:34:27;;;;;;;10.80;7.05;;;10.90;99.90;;;;;;10426651;28;20017;-64
2023/03/20 20:39:27;;;;;;;11.43;6.40;;;10.90;99.90;;;;;;10435309;28;20572;-64
2023/03/20 20:44:28;;;;;;;10.13;5.93;;;10.90;99.90;;;;;;10434985;28;20021;-64
2023/03/20 20:49:29;;;;;;;12.05;6.75;;;10.90;99.90;;;;;;10438511;28;20078;-64
2023/03/20 20:54:30;;;;;;;11.23;6.47;;;10.90;99.90;;;;;;10437799;28;20021;-65
2023/03/20 20:59:31;;;;;;;9.85;6.65;;;10.90;99.90;;;;;;10440943;28;20080;-64
2023/03/20 21:04:32;;;;;;;9.98;6.28;;;10.90;99.90;;;;;;10436424;28;20500;-63
2023/03/20 21:09:33;;;;;;;9.65;6.13;;;10.90;99.90;;;;;;10440000;28;20391;-64
2023/03/20 21:14:34;;;;;;;8.48;5.80;;;10.90;99.90;;;;;;10435438;28;20014;-64
2023/03/20 21:19:38;;;;;;;10.25;6.10;;;10.90;99.90;;;;;;10435083;28;20033;-64
2023/03/20 21:24:38;;;;;;;9.07;5.90;;;10.90;99.90;;;;;;10431850;28;20029;-64
2023/03/20 21:29:40;;;;;;;9.88;6.50;;;10.90;99.90;;;;;;10436689;28;20081;-62
2023/03/20 21:34:42;;;;;;;9.48;6.25;;;10.90;99.90;;;;;;10435789;28;20059;-64
2023/03/20 21:39:43;;;;;;;8.85;5.72;;;10.90;99.90;;;;;;10432083;28;20453;-64
2023/03/20 21:44:45;;;;;;;10.70;6.22;;;10.90;99.90;;;;;;10431462;28;20396;-65
2023/03/20 21:49:46;;;;;;;9.98;6.43;;;10.90;99.90;;;;;;10433940;28;20052;-64
2023/03/20 21:54:47;;;;;;;8.15;5.45;;;10.90;99.90;;;;;;10435610;28;20025;-64
2023/03/20 21:59:47;;;;;;;9.77;6.07;;;10.90;99.90;;;;;;10438630;28;20129;-63
2023/03/20 22:04:48;;;;;;;8.38;5.63;;;10.90;99.90;;;;;;10434655;28;20036;-63
2023/03/20 22:09:48;;;;;;;10.15;6.22;;;10.90;99.90;;;;;;10436688;28;20036;-64
2023/03/20 22:14:49;;;;;;;8.70;5.90;;;10.90;99.90;;;;;;10434583;28;20492;-63
2023/03/20 22:19:50;;;;;;;9.05;6.03;;;10.90;99.90;;;;;;10428715;28;20025;-63
2023/03/20 22:24:52;;;;;;;9.57;6.22;;;10.90;99.90;;;;;;10431382;28;20033;-64
2023/03/20 22:29:53;;;;;;;9.30;5.95;;;10.90;99.90;;;;;;10429096;28;20096;-63
2023/03/20 22:34:53;;;;;;;8.45;5.32;;;10.90;99.90;;;;;;10433680;28;20024;-65
2023/03/20 22:39:54;;;;;;;8.90;5.70;;;10.90;99.90;;;;;;10436397;28;20017;-64
2023/03/20 22:44:54;;;;;;;7.93;4.90;;;10.90;99.90;;;;;;10432955;28;20032;-63
2023/03/20 22:49:55;;;;;;;9.50;6.13;;;10.90;99.90;;;;;;10435067;28;20033;-64
2023/03/20 22:54:57;;;;;;;8.32;5.25;;;10.90;99.90;;;;;;10428873;28;20370;-64
2023/03/20 22:59:58;;;;;;;7.65;5.10;;;10.90;99.90;;;;;;10426250;28;20021;-62
2023/03/20 23:04:58;;;;;;;8.48;5.55;;;10.90;99.90;;;;;;10431210;28;20492;-63
2023/03/20 23:10:00;;;;;;;8.07;4.85;;;10.90;99.90;;;;;;10415735;28;20084;-64
2023/03/20 23:15:00;;;;;;;7.72;4.93;;;10.90;99.90;;;;;;10426511;28;20025;-63
2023/03/20 23:20:02;;;;;;;8.52;5.20;;;10.90;99.90;;;;;;10431211;28;20021;-63
2023/03/20 23:25:03;;;;;;;6.82;4.95;;;10.90;99.90;;;;;;10421554;28;20041;-62
2023/03/20 23:30:04;;;;;;;8.38;4.50;;;10.90;99.90;;;;;;10428192;28;20033;-62
2023/03/20 23:35:07;;;;;;;8.48;5.55;;;10.90;99.90;;;;;;10420846;28;20041;-63
2023/03/20 23:40:08;;;;;;;6.55;4.43;;;10.90;99.90;;;;;;10424975;28;20094;-63
2023/03/20 23:45:10;;;;;;;6.47;4.40;;;10.90;99.90;;;;;;10423332;28;20496;-63
2023/03/20 23:50:11;;;;;;;6.97;4.68;;;10.90;99.90;;;;;;10423151;28;20094;-64
2023/03/20 23:55:11;;;;;;;6.70;4.20;;;10.90;99.90;;;;;;10428143;28;20017;-63
